sensor_id;sensor_type;location;lat;lon;timestamp;P1;durP1;ratioP1;P2;durP2;ratioP2
54428;SDS011;40337;52.978;6.310;2022-09-24T00:00:30;55.30;;;48.20;;
54428;SDS011;40337;52.978;6.310;2022-09-24T00:02:56;55.08;;;49.03;;
54428;SDS011;40337;52.978;6.310;2022-09-24T00:05:21;57.67;;;50.13;;
54428;SDS011;40337;52.978;6.310;2022-09-24T00:07:47;57.10;;;50.90;;
54428;SDS011;40337;52.978;6.310;2022-09-24T00:10:12;57.95;;;51.65;;
54428;SDS011;40337;52.978;6.310;2022-09-24T00:12:38;60.15;;;53.10;;
54428;SDS011;40337;52.978;6.310;2022-09-24T00:15:04;58.45;;;51.90;;
54428;SDS011;40337;52.978;6.310;2022-09-24T00:17:30;60.35;;;53.75;;
54428;SDS011;40337;52.978;6.310;2022-09-24T00:19:55;64.82;;;53.72;;
54428;SDS011;40337;52.978;6.310;2022-09-24T00:22:21;62.67;;;53.33;;
54428;SDS011;40337;52.978;6.310;2022-09-24T00:24:47;60.30;;;53.75;;
54428;SDS011;40337;52.978;6.310;2022-09-24T00:27:31;60.45;;;53.88;;
54428;SDS011;40337;52.978;6.310;2022-09-24T00:29:56;63.05;;;54.63;;
54428;SDS011;40337;52.978;6.310;2022-09-24T00:32:22;61.90;;;55.13;;
54428;SDS011;40337;52.978;6.310;2022-09-24T00:34:51;64.25;;;56.22;;
54428;SDS011;40337;52.978;6.310;2022-09-24T00:37:18;64.47;;;55.80;;
54428;SDS011;40337;52.978;6.310;2022-09-24T00:39:44;71.72;;;57.50;;
54428;SDS011;40337;52.978;6.310;2022-09-24T00:42:13;69.38;;;57.33;;
54428;SDS011;40337;52.978;6.310;2022-09-24T00:44:44;71.63;;;57.85;;
54428;SDS011;40337;52.978;6.310;2022-09-24T00:50:16;71.75;;;59.85;;
54428;SDS011;40337;52.978;6.310;2022-09-24T00:52:47;69.93;;;60.03;;
54428;SDS011;40337;52.978;6.310;2022-09-24T00:55:17;75.65;;;63.75;;
54428;SDS011;40337;52.978;6.310;2022-09-24T00:57:45;83.18;;;66.00;;
54428;SDS011;40337;52.978;6.310;2022-09-24T01:00:14;69.82;;;60.40;;
54428;SDS011;40337;52.978;6.310;2022-09-24T01:02:41;79.20;;;64.57;;
54428;SDS011;40337;52.978;6.310;2022-09-24T01:05:11;77.57;;;65.22;;
54428;SDS011;40337;52.978;6.310;2022-09-24T01:07:36;74.05;;;62.20;;
54428;SDS011;40337;52.978;6.310;2022-09-24T01:10:02;81.25;;;63.92;;
54428;SDS011;40337;52.978;6.310;2022-09-24T01:12:36;73.28;;;63.33;;
54428;SDS011;40337;52.978;6.310;2022-09-24T01:29:32;82.13;;;67.13;;
54428;SDS011;40337;52.978;6.310;2022-09-24T01:34:56;81.43;;;65.97;;
54428;SDS011;40337;52.978;6.310;2022-09-24T01:37:30;85.97;;;68.50;;
54428;SDS011;40337;52.978;6.310;2022-09-24T01:39:58;80.22;;;65.95;;
54428;SDS011;40337;52.978;6.310;2022-09-24T01:42:26;82.10;;;67.32;;
54428;SDS011;40337;52.978;6.310;2022-09-24T01:44:54;80.93;;;67.60;;
54428;SDS011;40337;52.978;6.310;2022-09-24T01:47:41;79.47;;;64.55;;
54428;SDS011;40337;52.978;6.310;2022-09-24T01:50:10;77.65;;;64.50;;
54428;SDS011;40337;52.978;6.310;2022-09-24T01:53:21;82.57;;;68.78;;
54428;SDS011;40337;52.978;6.310;2022-09-24T01:55:31;76.43;;;64.20;;
54428;SDS011;40337;52.978;6.310;2022-09-24T01:58:09;82.72;;;65.97;;
54428;SDS011;40337;52.978;6.310;2022-09-24T02:00:39;79.07;;;65.75;;
54428;SDS011;40337;52.978;6.310;2022-09-24T02:03:10;76.22;;;64.25;;
54428;SDS011;40337;52.978;6.310;2022-09-24T02:05:50;76.32;;;64.03;;
54428;SDS011;40337;52.978;6.310;2022-09-24T02:08:28;84.40;;;64.90;;
54428;SDS011;40337;52.978;6.310;2022-09-24T02:13:36;82.22;;;65.07;;
54428;SDS011;40337;52.978;6.310;2022-09-24T02:16:07;82.07;;;64.72;;
54428;SDS011;40337;52.978;6.310;2022-09-24T02:18:37;86.03;;;67.45;;
54428;SDS011;40337;52.978;6.310;2022-09-24T02:21:06;87.68;;;68.20;;
54428;SDS011;40337;52.978;6.310;2022-09-24T02:23:35;78.18;;;65.72;;
54428;SDS011;40337;52.978;6.310;2022-09-24T02:26:05;80.65;;;66.95;;
54428;SDS011;40337;52.978;6.310;2022-09-24T02:28:31;81.22;;;66.53;;
54428;SDS011;40337;52.978;6.310;2022-09-24T02:30:58;80.45;;;67.30;;
54428;SDS011;40337;52.978;6.310;2022-09-24T02:33:30;80.95;;;65.22;;
54428;SDS011;40337;52.978;6.310;2022-09-24T02:36:17;81.63;;;65.80;;
54428;SDS011;40337;52.978;6.310;2022-09-24T02:38:43;76.55;;;64.72;;
54428;SDS011;40337;52.978;6.310;2022-09-24T02:41:10;83.13;;;65.45;;
54428;SDS011;40337;52.978;6.310;2022-09-24T02:43:37;83.60;;;66.65;;
54428;SDS011;40337;52.978;6.310;2022-09-24T02:46:05;79.78;;;64.72;;
54428;SDS011;40337;52.978;6.310;2022-09-24T02:48:32;79.15;;;64.90;;
54428;SDS011;40337;52.978;6.310;2022-09-24T02:50:57;79.72;;;64.07;;
54428;SDS011;40337;52.978;6.310;2022-09-24T02:53:23;77.68;;;62.88;;
54428;SDS011;40337;52.978;6.310;2022-09-24T02:55:49;79.03;;;64.28;;
54428;SDS011;40337;52.978;6.310;2022-09-24T02:58:14;74.55;;;61.83;;
54428;SDS011;40337;52.978;6.310;2022-09-24T03:00:40;76.30;;;63.00;;
54428;SDS011;40337;52.978;6.310;2022-09-24T03:03:05;77.18;;;63.67;;
54428;SDS011;40337;52.978;6.310;2022-09-24T03:05:31;77.97;;;63.97;;
54428;SDS011;40337;52.978;6.310;2022-09-24T03:07:56;79.88;;;63.75;;
54428;SDS011;40337;52.978;6.310;2022-09-24T03:10:22;76.90;;;62.75;;
54428;SDS011;40337;52.978;6.310;2022-09-24T03:12:48;75.53;;;61.95;;
54428;SDS011;40337;52.978;6.310;2022-09-24T03:15:14;73.13;;;60.25;;
54428;SDS011;40337;52.978;6.310;2022-09-24T03:17:39;77.10;;;61.50;;
54428;SDS011;40337;52.978;6.310;2022-09-24T03:20:05;78.03;;;63.45;;
54428;SDS011;40337;52.978;6.310;2022-09-24T03:22:31;73.93;;;62.65;;
54428;SDS011;40337;52.978;6.310;2022-09-24T03:24:56;75.45;;;62.05;;
54428;SDS011;40337;52.978;6.310;2022-09-24T03:27:22;76.40;;;61.95;;
54428;SDS011;40337;52.978;6.310;2022-09-24T03:29:47;72.97;;;61.38;;
54428;SDS011;40337;52.978;6.310;2022-09-24T03:32:31;82.97;;;63.88;;
54428;SDS011;40337;52.978;6.310;2022-09-24T03:34:58;77.22;;;63.33;;
54428;SDS011;40337;52.978;6.310;2022-09-24T03:37:25;76.45;;;61.17;;
54428;SDS011;40337;52.978;6.310;2022-09-24T03:39:50;79.13;;;63.58;;
54428;SDS011;40337;52.978;6.310;2022-09-24T03:42:16;73.72;;;60.30;;
54428;SDS011;40337;52.978;6.310;2022-09-24T03:44:41;76.55;;;61.38;;
54428;SDS011;40337;52.978;6.310;2022-09-24T03:47:07;78.63;;;62.70;;
54428;SDS011;40337;52.978;6.310;2022-09-24T03:49:34;78.05;;;62.15;;
54428;SDS011;40337;52.978;6.310;2022-09-24T03:51:59;74.60;;;60.17;;
54428;SDS011;40337;52.978;6.310;2022-09-24T03:54:25;77.60;;;61.47;;
54428;SDS011;40337;52.978;6.310;2022-09-24T03:56:50;71.90;;;59.65;;
54428;SDS011;40337;52.978;6.310;2022-09-24T03:59:16;72.93;;;57.35;;
54428;SDS011;40337;52.978;6.310;2022-09-24T04:01:41;70.45;;;57.45;;
54428;SDS011;40337;52.978;6.310;2022-09-24T04:04:07;75.43;;;60.40;;
54428;SDS011;40337;52.978;6.310;2022-09-24T04:06:32;67.30;;;55.80;;
54428;SDS011;40337;52.978;6.310;2022-09-24T04:08:59;79.78;;;60.92;;
54428;SDS011;40337;52.978;6.310;2022-09-24T04:11:24;78.55;;;60.40;;
54428;SDS011;40337;52.978;6.310;2022-09-24T04:13:50;75.13;;;59.60;;
54428;SDS011;40337;52.978;6.310;2022-09-24T04:16:17;78.00;;;58.42;;
54428;SDS011;40337;52.978;6.310;2022-09-24T04:18:42;69.20;;;53.58;;
54428;SDS011;40337;52.978;6.310;2022-09-24T04:21:08;78.97;;;59.10;;
54428;SDS011;40337;52.978;6.310;2022-09-24T04:23:34;63.92;;;53.42;;
54428;SDS011;40337;52.978;6.310;2022-09-24T04:26:00;72.10;;;57.78;;
54428;SDS011;40337;52.978;6.310;2022-09-24T04:28:26;74.03;;;57.47;;
54428;SDS011;40337;52.978;6.310;2022-09-24T04:30:53;76.70;;;58.03;;
54428;SDS011;40337;52.978;6.310;2022-09-24T04:33:19;67.38;;;54.40;;
54428;SDS011;40337;52.978;6.310;2022-09-24T04:35:45;76.53;;;60.42;;
54428;SDS011;40337;52.978;6.310;2022-09-24T04:38:11;92.63;;;66.82;;
54428;SDS011;40337;52.978;6.310;2022-09-24T04:40:37;78.10;;;60.72;;
54428;SDS011;40337;52.978;6.310;2022-09-24T04:43:04;75.43;;;59.25;;
54428;SDS011;40337;52.978;6.310;2022-09-24T04:45:30;81.07;;;62.33;;
54428;SDS011;40337;52.978;6.310;2022-09-24T04:47:56;75.97;;;60.90;;
54428;SDS011;40337;52.978;6.310;2022-09-24T04:50:25;80.82;;;60.95;;
54428;SDS011;40337;52.978;6.310;2022-09-24T04:52:53;76.80;;;60.83;;
54428;SDS011;40337;52.978;6.310;2022-09-24T04:55:19;90.93;;;67.28;;
54428;SDS011;40337;52.978;6.310;2022-09-24T04:57:45;81.47;;;62.17;;
54428;SDS011;40337;52.978;6.310;2022-09-24T05:00:12;93.75;;;59.35;;
54428;SDS011;40337;52.978;6.310;2022-09-24T05:02:41;80.32;;;53.40;;
54428;SDS011;40337;52.978;6.310;2022-09-24T05:05:07;110.60;;;66.78;;
54428;SDS011;40337;52.978;6.310;2022-09-24T05:07:33;85.10;;;64.35;;
54428;SDS011;40337;52.978;6.310;2022-09-24T05:09:59;97.80;;;68.25;;
54428;SDS011;40337;52.978;6.310;2022-09-24T05:12:25;73.75;;;55.42;;
54428;SDS011;40337;52.978;6.310;2022-09-24T05:14:50;81.35;;;60.83;;
54428;SDS011;40337;52.978;6.310;2022-09-24T05:17:16;88.60;;;64.18;;
54428;SDS011;40337;52.978;6.310;2022-09-24T05:19:41;105.15;;;66.53;;
54428;SDS011;40337;52.978;6.310;2022-09-24T05:22:07;74.22;;;55.30;;
54428;SDS011;40337;52.978;6.310;2022-09-24T05:24:32;96.25;;;62.80;;
54428;SDS011;40337;52.978;6.310;2022-09-24T05:26:58;92.68;;;63.40;;
54428;SDS011;40337;52.978;6.310;2022-09-24T05:29:39;81.57;;;56.58;;
54428;SDS011;40337;52.978;6.310;2022-09-24T05:32:08;84.50;;;57.35;;
54428;SDS011;40337;52.978;6.310;2022-09-24T05:34:35;89.63;;;56.92;;
54428;SDS011;40337;52.978;6.310;2022-09-24T05:37:01;73.45;;;55.05;;
54428;SDS011;40337;52.978;6.310;2022-09-24T05:39:27;76.93;;;52.72;;
54428;SDS011;40337;52.978;6.310;2022-09-24T05:41:54;102.10;;;60.08;;
54428;SDS011;40337;52.978;6.310;2022-09-24T05:44:20;68.38;;;53.53;;
54428;SDS011;40337;52.978;6.310;2022-09-24T05:46:49;102.43;;;60.80;;
54428;SDS011;40337;52.978;6.310;2022-09-24T05:49:16;68.38;;;52.10;;
54428;SDS011;40337;52.978;6.310;2022-09-24T05:51:42;92.68;;;56.60;;
54428;SDS011;40337;52.978;6.310;2022-09-24T05:54:07;113.40;;;60.67;;
54428;SDS011;40337;52.978;6.310;2022-09-24T05:56:35;126.70;;;57.90;;
54428;SDS011;40337;52.978;6.310;2022-09-24T05:59:01;82.78;;;54.70;;
54428;SDS011;40337;52.978;6.310;2022-09-24T06:01:27;103.47;;;54.88;;
54428;SDS011;40337;52.978;6.310;2022-09-24T06:03:54;64.82;;;48.00;;
54428;SDS011;40337;52.978;6.310;2022-09-24T06:06:20;69.85;;;47.50;;
54428;SDS011;40337;52.978;6.310;2022-09-24T06:08:46;65.22;;;46.33;;
54428;SDS011;40337;52.978;6.310;2022-09-24T06:11:12;69.00;;;44.47;;
54428;SDS011;40337;52.978;6.310;2022-09-24T06:13:38;68.22;;;44.88;;
54428;SDS011;40337;52.978;6.310;2022-09-24T06:16:05;60.10;;;39.70;;
54428;SDS011;40337;52.978;6.310;2022-09-24T06:18:33;53.90;;;37.17;;
54428;SDS011;40337;52.978;6.310;2022-09-24T06:21:00;60.15;;;37.33;;
54428;SDS011;40337;52.978;6.310;2022-09-24T06:23:30;58.30;;;34.83;;
54428;SDS011;40337;52.978;6.310;2022-09-24T06:25:56;54.78;;;32.92;;
54428;SDS011;40337;52.978;6.310;2022-09-24T06:28:22;43.67;;;30.35;;
54428;SDS011;40337;52.978;6.310;2022-09-24T06:30:49;42.03;;;28.13;;
54428;SDS011;40337;52.978;6.310;2022-09-24T06:33:15;39.17;;;28.65;;
54428;SDS011;40337;52.978;6.310;2022-09-24T06:35:46;45.30;;;28.58;;
54428;SDS011;40337;52.978;6.310;2022-09-24T06:38:16;41.78;;;27.67;;
54428;SDS011;40337;52.978;6.310;2022-09-24T06:40:43;39.00;;;26.73;;
54428;SDS011;40337;52.978;6.310;2022-09-24T06:43:11;42.70;;;25.48;;
54428;SDS011;40337;52.978;6.310;2022-09-24T06:45:37;35.97;;;25.10;;
54428;SDS011;40337;52.978;6.310;2022-09-24T06:48:03;35.40;;;22.05;;
54428;SDS011;40337;52.978;6.310;2022-09-24T06:50:30;38.30;;;24.30;;
54428;SDS011;40337;52.978;6.310;2022-09-24T06:52:58;29.30;;;20.70;;
54428;SDS011;40337;52.978;6.310;2022-09-24T06:55:23;42.17;;;23.92;;
54428;SDS011;40337;52.978;6.310;2022-09-24T06:57:49;27.45;;;17.65;;
54428;SDS011;40337;52.978;6.310;2022-09-24T07:00:24;25.00;;;15.20;;
54428;SDS011;40337;52.978;6.310;2022-09-24T07:02:50;19.83;;;12.48;;
54428;SDS011;40337;52.978;6.310;2022-09-24T07:05:16;18.08;;;9.68;;
54428;SDS011;40337;52.978;6.310;2022-09-24T07:07:41;21.27;;;10.48;;
54428;SDS011;40337;52.978;6.310;2022-09-24T07:10:07;19.50;;;10.88;;
54428;SDS011;40337;52.978;6.310;2022-09-24T07:12:34;17.55;;;8.90;;
54428;SDS011;40337;52.978;6.310;2022-09-24T07:15:00;18.00;;;9.10;;
54428;SDS011;40337;52.978;6.310;2022-09-24T07:17:26;15.63;;;8.02;;
54428;SDS011;40337;52.978;6.310;2022-09-24T07:19:53;16.85;;;5.30;;
54428;SDS011;40337;52.978;6.310;2022-09-24T07:22:19;14.95;;;4.82;;
54428;SDS011;40337;52.978;6.310;2022-09-24T07:24:45;18.90;;;4.32;;
54428;SDS011;40337;52.978;6.310;2022-09-24T07:27:12;17.25;;;4.00;;
54428;SDS011;40337;52.978;6.310;2022-09-24T07:29:38;14.15;;;4.20;;
54428;SDS011;40337;52.978;6.310;2022-09-24T07:32:04;12.90;;;3.70;;
54428;SDS011;40337;52.978;6.310;2022-09-24T07:34:30;13.82;;;3.95;;
54428;SDS011;40337;52.978;6.310;2022-09-24T07:36:56;13.57;;;3.50;;
54428;SDS011;40337;52.978;6.310;2022-09-24T07:39:22;13.80;;;3.22;;
54428;SDS011;40337;52.978;6.310;2022-09-24T07:41:48;16.88;;;3.55;;
54428;SDS011;40337;52.978;6.310;2022-09-24T07:44:16;12.77;;;3.15;;
54428;SDS011;40337;52.978;6.310;2022-09-24T07:46:46;15.57;;;3.10;;
54428;SDS011;40337;52.978;6.310;2022-09-24T07:49:12;14.45;;;3.50;;
54428;SDS011;40337;52.978;6.310;2022-09-24T07:51:38;12.48;;;3.03;;
54428;SDS011;40337;52.978;6.310;2022-09-24T07:54:03;14.88;;;3.50;;
54428;SDS011;40337;52.978;6.310;2022-09-24T07:56:30;14.73;;;3.35;;
54428;SDS011;40337;52.978;6.310;2022-09-24T07:58:56;14.10;;;2.67;;
54428;SDS011;40337;52.978;6.310;2022-09-24T08:01:22;10.15;;;2.50;;
54428;SDS011;40337;52.978;6.310;2022-09-24T08:03:49;13.75;;;3.00;;
54428;SDS011;40337;52.978;6.310;2022-09-24T08:06:16;11.30;;;2.58;;
54428;SDS011;40337;52.978;6.310;2022-09-24T08:08:42;10.65;;;3.03;;
54428;SDS011;40337;52.978;6.310;2022-09-24T08:11:08;12.05;;;2.97;;
54428;SDS011;40337;52.978;6.310;2022-09-24T08:13:37;9.13;;;2.63;;
54428;SDS011;40337;52.978;6.310;2022-09-24T08:16:03;14.02;;;2.63;;
54428;SDS011;40337;52.978;6.310;2022-09-24T08:18:30;13.13;;;2.90;;
54428;SDS011;40337;52.978;6.310;2022-09-24T08:20:57;12.48;;;2.90;;
54428;SDS011;40337;52.978;6.310;2022-09-24T08:23:24;12.85;;;2.55;;
54428;SDS011;40337;52.978;6.310;2022-09-24T08:25:49;11.25;;;2.65;;
54428;SDS011;40337;52.978;6.310;2022-09-24T08:28:18;11.68;;;2.40;;
54428;SDS011;40337;52.978;6.310;2022-09-24T08:30:44;9.75;;;2.33;;
54428;SDS011;40337;52.978;6.310;2022-09-24T08:33:10;9.43;;;2.13;;
54428;SDS011;40337;52.978;6.310;2022-09-24T08:35:36;12.77;;;2.70;;
54428;SDS011;40337;52.978;6.310;2022-09-24T08:38:05;10.30;;;2.40;;
54428;SDS011;40337;52.978;6.310;2022-09-24T08:40:43;11.10;;;2.50;;
54428;SDS011;40337;52.978;6.310;2022-09-24T08:43:35;12.48;;;2.92;;
54428;SDS011;40337;52.978;6.310;2022-09-24T08:46:16;7.93;;;2.25;;
54428;SDS011;40337;52.978;6.310;2022-09-24T08:49:06;10.23;;;2.40;;
54428;SDS011;40337;52.978;6.310;2022-09-24T08:51:37;12.20;;;2.60;;
54428;SDS011;40337;52.978;6.310;2022-09-24T08:54:10;10.68;;;2.42;;
54428;SDS011;40337;52.978;6.310;2022-09-24T08:56:39;13.32;;;2.35;;
54428;SDS011;40337;52.978;6.310;2022-09-24T09:02:33;8.15;;;2.15;;
54428;SDS011;40337;52.978;6.310;2022-09-24T09:04:46;11.40;;;2.20;;
54428;SDS011;40337;52.978;6.310;2022-09-24T09:07:29;9.95;;;2.20;;
54428;SDS011;40337;52.978;6.310;2022-09-24T09:10:11;10.70;;;2.30;;
54428;SDS011;40337;52.978;6.310;2022-09-24T09:12:54;8.63;;;2.15;;
54428;SDS011;40337;52.978;6.310;2022-09-24T09:15:40;8.98;;;2.35;;
54428;SDS011;40337;52.978;6.310;2022-09-24T09:20:45;9.07;;;1.80;;
54428;SDS011;40337;52.978;6.310;2022-09-24T09:23:17;8.38;;;2.10;;
54428;SDS011;40337;52.978;6.310;2022-09-24T09:25:46;10.13;;;2.22;;
54428;SDS011;40337;52.978;6.310;2022-09-24T09:28:17;7.20;;;1.77;;
54428;SDS011;40337;52.978;6.310;2022-09-24T09:36:14;9.55;;;1.98;;
54428;SDS011;40337;52.978;6.310;2022-09-24T09:38:58;7.32;;;2.03;;
54428;SDS011;40337;52.978;6.310;2022-09-24T09:41:40;11.02;;;2.30;;
54428;SDS011;40337;52.978;6.310;2022-09-24T09:44:15;7.05;;;1.80;;
54428;SDS011;40337;52.978;6.310;2022-09-24T09:46:49;10.70;;;2.20;;
54428;SDS011;40337;52.978;6.310;2022-09-24T09:49:19;12.40;;;2.53;;
54428;SDS011;40337;52.978;6.310;2022-09-24T09:51:46;5.40;;;1.80;;
54428;SDS011;40337;52.978;6.310;2022-09-24T09:54:15;10.45;;;1.80;;
54428;SDS011;40337;52.978;6.310;2022-09-24T09:56:44;7.22;;;1.50;;
54428;SDS011;40337;52.978;6.310;2022-09-24T10:01:43;7.18;;;1.90;;
54428;SDS011;40337;52.978;6.310;2022-09-24T10:04:21;6.72;;;1.77;;
54428;SDS011;40337;52.978;6.310;2022-09-24T10:06:48;8.05;;;1.88;;
54428;SDS011;40337;52.978;6.310;2022-09-24T10:09:14;7.88;;;2.00;;
54428;SDS011;40337;52.978;6.310;2022-09-24T10:11:45;9.05;;;2.00;;
54428;SDS011;40337;52.978;6.310;2022-09-24T10:14:13;7.53;;;1.80;;
54428;SDS011;40337;52.978;6.310;2022-09-24T10:16:40;9.13;;;1.90;;
54428;SDS011;40337;52.978;6.310;2022-09-24T10:19:21;10.25;;;2.05;;
54428;SDS011;40337;52.978;6.310;2022-09-24T10:21:49;5.88;;;2.10;;
54428;SDS011;40337;52.978;6.310;2022-09-24T10:24:20;6.47;;;1.90;;
54428;SDS011;40337;52.978;6.310;2022-09-24T10:26:48;10.95;;;2.25;;
54428;SDS011;40337;52.978;6.310;2022-09-24T10:29:15;8.35;;;1.98;;
54428;SDS011;40337;52.978;6.310;2022-09-24T10:32:02;7.85;;;2.05;;
54428;SDS011;40337;52.978;6.310;2022-09-24T10:34:29;7.18;;;1.85;;
54428;SDS011;40337;52.978;6.310;2022-09-24T10:36:59;6.63;;;1.95;;
54428;SDS011;40337;52.978;6.310;2022-09-24T10:39:27;7.85;;;1.88;;
54428;SDS011;40337;52.978;6.310;2022-09-24T10:41:54;9.10;;;2.10;;
54428;SDS011;40337;52.978;6.310;2022-09-24T10:44:21;11.32;;;2.10;;
54428;SDS011;40337;52.978;6.310;2022-09-24T10:49:54;6.50;;;1.38;;
54428;SDS011;40337;52.978;6.310;2022-09-24T10:55:38;5.32;;;1.40;;
54428;SDS011;40337;52.978;6.310;2022-09-24T11:09:13;6.03;;;1.52;;
54428;SDS011;40337;52.978;6.310;2022-09-24T11:12:03;6.82;;;1.92;;
54428;SDS011;40337;52.978;6.310;2022-09-24T11:14:41;10.40;;;2.17;;
54428;SDS011;40337;52.978;6.310;2022-09-24T11:17:43;9.73;;;2.28;;
54428;SDS011;40337;52.978;6.310;2022-09-24T11:20:28;8.07;;;1.80;;
54428;SDS011;40337;52.978;6.310;2022-09-24T11:28:21;7.30;;;2.03;;
54428;SDS011;40337;52.978;6.310;2022-09-24T11:36:36;7.40;;;1.80;;
54428;SDS011;40337;52.978;6.310;2022-09-24T11:39:32;7.03;;;1.75;;
54428;SDS011;40337;52.978;6.310;2022-09-24T11:42:21;10.93;;;2.30;;
54428;SDS011;40337;52.978;6.310;2022-09-24T11:47:52;8.32;;;1.95;;
54428;SDS011;40337;52.978;6.310;2022-09-24T11:50:57;10.70;;;2.55;;
54428;SDS011;40337;52.978;6.310;2022-09-24T11:53:55;9.40;;;2.45;;
54428;SDS011;40337;52.978;6.310;2022-09-24T11:56:35;11.82;;;2.83;;
54428;SDS011;40337;52.978;6.310;2022-09-24T11:59:21;12.88;;;2.72;;
54428;SDS011;40337;52.978;6.310;2022-09-24T12:02:19;11.40;;;2.47;;
54428;SDS011;40337;52.978;6.310;2022-09-24T12:04:53;10.98;;;2.22;;
54428;SDS011;40337;52.978;6.310;2022-09-24T12:07:25;8.82;;;2.55;;
54428;SDS011;40337;52.978;6.310;2022-09-24T12:10:21;8.60;;;2.40;;
54428;SDS011;40337;52.978;6.310;2022-09-24T12:12:56;10.68;;;2.17;;
54428;SDS011;40337;52.978;6.310;2022-09-24T12:15:35;9.35;;;2.40;;
54428;SDS011;40337;52.978;6.310;2022-09-24T12:21:19;11.02;;;2.20;;
54428;SDS011;40337;52.978;6.310;2022-09-24T12:23:52;11.55;;;2.50;;
54428;SDS011;40337;52.978;6.310;2022-09-24T12:26:22;7.78;;;2.28;;
54428;SDS011;40337;52.978;6.310;2022-09-24T12:29:07;8.13;;;2.20;;
54428;SDS011;40337;52.978;6.310;2022-09-24T12:32:02;10.02;;;2.50;;
54428;SDS011;40337;52.978;6.310;2022-09-24T12:35:20;8.50;;;2.35;;
54428;SDS011;40337;52.978;6.310;2022-09-24T12:38:10;7.43;;;2.30;;
54428;SDS011;40337;52.978;6.310;2022-09-24T12:43:34;11.00;;;2.42;;
54428;SDS011;40337;52.978;6.310;2022-09-24T12:46:03;7.18;;;1.88;;
54428;SDS011;40337;52.978;6.310;2022-09-24T12:48:33;10.40;;;2.20;;
54428;SDS011;40337;52.978;6.310;2022-09-24T12:51:02;7.03;;;2.00;;
54428;SDS011;40337;52.978;6.310;2022-09-24T12:53:34;9.77;;;2.35;;
54428;SDS011;40337;52.978;6.310;2022-09-24T12:56:02;13.25;;;2.50;;
54428;SDS011;40337;52.978;6.310;2022-09-24T13:01:12;7.00;;;2.00;;
54428;SDS011;40337;52.978;6.310;2022-09-24T13:06:39;9.68;;;2.20;;
54428;SDS011;40337;52.978;6.310;2022-09-24T13:12:18;10.60;;;2.30;;
54428;SDS011;40337;52.978;6.310;2022-09-24T13:14:57;9.07;;;2.40;;
54428;SDS011;40337;52.978;6.310;2022-09-24T13:17:27;9.98;;;2.33;;
54428;SDS011;40337;52.978;6.310;2022-09-24T13:20:04;9.90;;;2.20;;
54428;SDS011;40337;52.978;6.310;2022-09-24T13:22:33;8.82;;;1.80;;
54428;SDS011;40337;52.978;6.310;2022-09-24T13:25:20;8.65;;;1.98;;
54428;SDS011;40337;52.978;6.310;2022-09-24T13:27:55;7.65;;;1.80;;
54428;SDS011;40337;52.978;6.310;2022-09-24T13:32:58;6.65;;;1.80;;
54428;SDS011;40337;52.978;6.310;2022-09-24T13:35:34;6.55;;;1.80;;
54428;SDS011;40337;52.978;6.310;2022-09-24T13:38:28;8.05;;;2.10;;
54428;SDS011;40337;52.978;6.310;2022-09-24T13:41:11;8.63;;;2.15;;
54428;SDS011;40337;52.978;6.310;2022-09-24T13:43:47;6.07;;;1.80;;
54428;SDS011;40337;52.978;6.310;2022-09-24T13:46:18;7.32;;;2.13;;
54428;SDS011;40337;52.978;6.310;2022-09-24T13:48:51;6.78;;;1.75;;
54428;SDS011;40337;52.978;6.310;2022-09-24T13:51:24;6.20;;;1.70;;
54428;SDS011;40337;52.978;6.310;2022-09-24T13:53:55;10.10;;;1.95;;
54428;SDS011;40337;52.978;6.310;2022-09-24T13:59:35;7.80;;;2.10;;
54428;SDS011;40337;52.978;6.310;2022-09-24T14:02:01;5.75;;;1.52;;
54428;SDS011;40337;52.978;6.310;2022-09-24T14:04:27;7.22;;;1.92;;
54428;SDS011;40337;52.978;6.310;2022-09-24T14:06:54;8.60;;;2.20;;
54428;SDS011;40337;52.978;6.310;2022-09-24T14:09:26;6.45;;;2.08;;
54428;SDS011;40337;52.978;6.310;2022-09-24T14:11:58;8.20;;;1.90;;
54428;SDS011;40337;52.978;6.310;2022-09-24T14:14:26;9.23;;;2.28;;
54428;SDS011;40337;52.978;6.310;2022-09-24T14:17:04;9.90;;;2.15;;
54428;SDS011;40337;52.978;6.310;2022-09-24T14:19:31;8.23;;;2.30;;
54428;SDS011;40337;52.978;6.310;2022-09-24T14:21:58;6.90;;;2.05;;
54428;SDS011;40337;52.978;6.310;2022-09-24T14:24:30;7.28;;;1.63;;
54428;SDS011;40337;52.978;6.310;2022-09-24T14:27:05;5.18;;;1.38;;
54428;SDS011;40337;52.978;6.310;2022-09-24T14:29:36;6.90;;;1.70;;
54428;SDS011;40337;52.978;6.310;2022-09-24T14:32:02;6.57;;;1.70;;
54428;SDS011;40337;52.978;6.310;2022-09-24T14:34:32;5.50;;;1.60;;
54428;SDS011;40337;52.978;6.310;2022-09-24T14:37:20;8.18;;;1.48;;
54428;SDS011;40337;52.978;6.310;2022-09-24T14:39:50;5.70;;;1.40;;
54428;SDS011;40337;52.978;6.310;2022-09-24T14:42:27;6.72;;;1.50;;
54428;SDS011;40337;52.978;6.310;2022-09-24T14:44:56;5.10;;;1.15;;
54428;SDS011;40337;52.978;6.310;2022-09-24T14:49:56;4.57;;;1.48;;
54428;SDS011;40337;52.978;6.310;2022-09-24T14:52:35;7.63;;;1.70;;
54428;SDS011;40337;52.978;6.310;2022-09-24T14:55:17;4.50;;;1.40;;
54428;SDS011;40337;52.978;6.310;2022-09-24T14:57:45;6.13;;;1.65;;
54428;SDS011;40337;52.978;6.310;2022-09-24T15:00:29;7.32;;;1.70;;
54428;SDS011;40337;52.978;6.310;2022-09-24T15:03:13;6.15;;;1.92;;
54428;SDS011;40337;52.978;6.310;2022-09-24T15:05:41;5.88;;;1.65;;
54428;SDS011;40337;52.978;6.310;2022-09-24T15:10:50;7.25;;;1.77;;
54428;SDS011;40337;52.978;6.310;2022-09-24T15:13:18;8.52;;;1.83;;
54428;SDS011;40337;52.978;6.310;2022-09-24T15:15:47;7.40;;;1.75;;
54428;SDS011;40337;52.978;6.310;2022-09-24T15:18:14;8.38;;;2.38;;
54428;SDS011;40337;52.978;6.310;2022-09-24T15:20:42;6.13;;;1.90;;
54428;SDS011;40337;52.978;6.310;2022-09-24T15:23:08;8.13;;;1.98;;
54428;SDS011;40337;52.978;6.310;2022-09-24T15:25:34;10.15;;;2.10;;
54428;SDS011;40337;52.978;6.310;2022-09-24T15:28:00;7.97;;;2.10;;
54428;SDS011;40337;52.978;6.310;2022-09-24T15:30:26;7.30;;;2.38;;
54428;SDS011;40337;52.978;6.310;2022-09-24T15:32:52;8.93;;;2.00;;
54428;SDS011;40337;52.978;6.310;2022-09-24T15:35:17;8.10;;;2.33;;
54428;SDS011;40337;52.978;6.310;2022-09-24T15:37:43;10.65;;;2.60;;
54428;SDS011;40337;52.978;6.310;2022-09-24T15:40:19;10.82;;;2.40;;
54428;SDS011;40337;52.978;6.310;2022-09-24T15:42:47;11.57;;;2.70;;
54428;SDS011;40337;52.978;6.310;2022-09-24T15:47:47;11.02;;;3.00;;
54428;SDS011;40337;52.978;6.310;2022-09-24T15:50:13;10.88;;;3.40;;
54428;SDS011;40337;52.978;6.310;2022-09-24T15:52:41;7.88;;;2.50;;
54428;SDS011;40337;52.978;6.310;2022-09-24T15:55:18;9.98;;;2.60;;
54428;SDS011;40337;52.978;6.310;2022-09-24T15:57:45;8.30;;;2.00;;
54428;SDS011;40337;52.978;6.310;2022-09-24T16:00:12;10.70;;;2.50;;
54428;SDS011;40337;52.978;6.310;2022-09-24T16:02:38;10.68;;;2.30;;
54428;SDS011;40337;52.978;6.310;2022-09-24T16:05:12;11.68;;;2.40;;
54428;SDS011;40337;52.978;6.310;2022-09-24T16:07:39;11.15;;;2.35;;
54428;SDS011;40337;52.978;6.310;2022-09-24T16:10:05;8.38;;;2.20;;
54428;SDS011;40337;52.978;6.310;2022-09-24T16:12:31;8.68;;;2.50;;
54428;SDS011;40337;52.978;6.310;2022-09-24T16:14:56;9.45;;;2.22;;
54428;SDS011;40337;52.978;6.310;2022-09-24T16:17:24;10.18;;;2.10;;
54428;SDS011;40337;52.978;6.310;2022-09-24T16:19:51;8.73;;;2.45;;
54428;SDS011;40337;52.978;6.310;2022-09-24T16:22:17;8.25;;;2.42;;
54428;SDS011;40337;52.978;6.310;2022-09-24T16:24:42;9.57;;;2.42;;
54428;SDS011;40337;52.978;6.310;2022-09-24T16:27:08;9.05;;;2.50;;